sensor_id;sensor_type;location;lat;lon;timestamp;P1;durP1;ratioP1;P2;durP2;ratioP2
69736;SDS011;64476;55.004;73.342;2023-02-12T00:00:16;63.65;;;27.10;;
69736;SDS011;64476;55.004;73.342;2023-02-12T00:03:19;85.07;;;29.33;;
69736;SDS011;64476;55.004;73.342;2023-02-12T00:06:20;60.65;;;25.02;;
69736;SDS011;64476;55.004;73.342;2023-02-12T00:09:54;78.32;;;29.35;;
69736;SDS011;64476;55.004;73.342;2023-02-12T00:13:05;65.38;;;27.73;;
69736;SDS011;64476;55.004;73.342;2023-02-12T00:16:09;68.03;;;27.40;;
69736;SDS011;64476;55.004;73.342;2023-02-12T00:19:22;66.15;;;25.92;;
69736;SDS011;64476;55.004;73.342;2023-02-12T00:22:24;67.82;;;28.00;;
69736;SDS011;64476;55.004;73.342;2023-02-12T00:25:25;66.47;;;26.27;;
69736;SDS011;64476;55.004;73.342;2023-02-12T00:28:33;76.13;;;29.55;;
69736;SDS011;64476;55.004;73.342;2023-02-12T00:31:35;83.90;;;27.20;;
69736;SDS011;64476;55.004;73.342;2023-02-12T00:34:37;89.85;;;35.63;;
69736;SDS011;64476;55.004;73.342;2023-02-12T00:37:40;131.07;;;45.10;;
69736;SDS011;64476;55.004;73.342;2023-02-12T00:40:47;171.82;;;58.17;;
69736;SDS011;64476;55.004;73.342;2023-02-12T00:43:48;164.88;;;57.85;;
69736;SDS011;64476;55.004;73.342;2023-02-12T00:46:51;187.43;;;62.78;;
69736;SDS011;64476;55.004;73.342;2023-02-12T00:49:52;164.57;;;52.60;;
69736;SDS011;64476;55.004;73.342;2023-02-12T00:52:54;163.65;;;52.55;;
69736;SDS011;64476;55.004;73.342;2023-02-12T00:56:05;147.50;;;50.88;;
69736;SDS011;64476;55.004;73.342;2023-02-12T00:59:07;131.43;;;49.33;;
69736;SDS011;64476;55.004;73.342;2023-02-12T01:02:41;120.88;;;46.33;;
69736;SDS011;64476;55.004;73.342;2023-02-12T01:05:47;123.93;;;44.50;;
69736;SDS011;64476;55.004;73.342;2023-02-12T01:08:49;111.80;;;45.72;;
69736;SDS011;64476;55.004;73.342;2023-02-12T01:11:53;133.45;;;46.28;;
69736;SDS011;64476;55.004;73.342;2023-02-12T01:14:55;121.55;;;45.08;;
69736;SDS011;64476;55.004;73.342;2023-02-12T01:18:07;102.65;;;39.22;;
69736;SDS011;64476;55.004;73.342;2023-02-12T01:21:10;92.32;;;38.53;;
69736;SDS011;64476;55.004;73.342;2023-02-12T01:24:13;106.05;;;35.95;;
69736;SDS011;64476;55.004;73.342;2023-02-12T01:27:19;93.13;;;38.40;;
69736;SDS011;64476;55.004;73.342;2023-02-12T01:30:20;88.82;;;34.17;;
69736;SDS011;64476;55.004;73.342;2023-02-12T01:33:25;89.35;;;34.50;;
69736;SDS011;64476;55.004;73.342;2023-02-12T01:36:33;94.40;;;33.00;;
69736;SDS011;64476;55.004;73.342;2023-02-12T01:39:40;87.30;;;32.00;;
69736;SDS011;64476;55.004;73.342;2023-02-12T01:42:49;76.38;;;28.13;;
69736;SDS011;64476;55.004;73.342;2023-02-12T01:49:37;78.75;;;29.95;;
69736;SDS011;64476;55.004;73.342;2023-02-12T01:52:44;74.10;;;29.65;;
69736;SDS011;64476;55.004;73.342;2023-02-12T01:55:54;85.77;;;30.47;;
69736;SDS011;64476;55.004;73.342;2023-02-12T01:58:59;92.40;;;31.23;;
69736;SDS011;64476;55.004;73.342;2023-02-12T02:02:41;69.15;;;29.05;;
69736;SDS011;64476;55.004;73.342;2023-02-12T02:05:54;85.26;;;29.62;;
69736;SDS011;64476;55.004;73.342;2023-02-12T02:09:01;84.97;;;32.13;;
69736;SDS011;64476;55.004;73.342;2023-02-12T02:12:06;99.38;;;34.15;;
69736;SDS011;64476;55.004;73.342;2023-02-12T02:16:01;96.70;;;31.67;;
69736;SDS011;64476;55.004;73.342;2023-02-12T02:19:28;90.50;;;33.33;;
69736;SDS011;64476;55.004;73.342;2023-02-12T02:23:44;95.03;;;37.92;;
69736;SDS011;64476;55.004;73.342;2023-02-12T02:27:01;101.00;;;36.67;;
69736;SDS011;64476;55.004;73.342;2023-02-12T02:40:34;98.95;;;37.08;;
69736;SDS011;64476;55.004;73.342;2023-02-12T02:43:49;93.28;;;39.58;;
69736;SDS011;64476;55.004;73.342;2023-02-12T02:46:52;103.90;;;40.13;;
69736;SDS011;64476;55.004;73.342;2023-02-12T02:49:56;123.70;;;41.55;;
69736;SDS011;64476;55.004;73.342;2023-02-12T02:56:44;110.10;;;42.97;;
69736;SDS011;64476;55.004;73.342;2023-02-12T02:59:50;118.72;;;42.53;;
69736;SDS011;64476;55.004;73.342;2023-02-12T03:06:49;116.75;;;41.88;;
69736;SDS011;64476;55.004;73.342;2023-02-12T03:13:08;124.30;;;45.70;;
69736;SDS011;64476;55.004;73.342;2023-02-12T03:16:25;110.00;;;44.90;;
69736;SDS011;64476;55.004;73.342;2023-02-12T03:20:13;105.38;;;42.78;;
69736;SDS011;64476;55.004;73.342;2023-02-12T03:23:43;130.32;;;48.33;;
69736;SDS011;64476;55.004;73.342;2023-02-12T03:30:04;115.18;;;41.67;;
69736;SDS011;64476;55.004;73.342;2023-02-12T03:43:29;120.63;;;43.25;;
69736;SDS011;64476;55.004;73.342;2023-02-12T03:47:04;137.98;;;49.42;;
69736;SDS011;64476;55.004;73.342;2023-02-12T03:50:18;175.90;;;54.05;;
69736;SDS011;64476;55.004;73.342;2023-02-12T03:53:28;132.35;;;51.80;;
69736;SDS011;64476;55.004;73.342;2023-02-12T04:00:21;136.55;;;51.28;;
69736;SDS011;64476;55.004;73.342;2023-02-12T04:03:24;156.85;;;55.33;;
69736;SDS011;64476;55.004;73.342;2023-02-12T04:06:28;142.70;;;51.30;;
69736;SDS011;64476;55.004;73.342;2023-02-12T04:09:30;153.65;;;52.42;;
69736;SDS011;64476;55.004;73.342;2023-02-12T04:12:33;173.38;;;58.35;;
69736;SDS011;64476;55.004;73.342;2023-02-12T04:15:59;182.46;;;66.52;;
69736;SDS011;64476;55.004;73.342;2023-02-12T04:19:02;139.67;;;58.40;;
69736;SDS011;64476;55.004;73.342;2023-02-12T04:33:03;202.63;;;74.57;;
69736;SDS011;64476;55.004;73.342;2023-02-12T04:36:11;197.88;;;75.88;;
69736;SDS011;64476;55.004;73.342;2023-02-12T04:39:18;212.05;;;83.50;;
69736;SDS011;64476;55.004;73.342;2023-02-12T04:42:43;271.35;;;95.07;;
69736;SDS011;64476;55.004;73.342;2023-02-12T04:45:52;221.50;;;86.70;;
69736;SDS011;64476;55.004;73.342;2023-02-12T04:48:55;213.57;;;81.80;;
69736;SDS011;64476;55.004;73.342;2023-02-12T04:52:03;216.63;;;81.05;;
69736;SDS011;64476;55.004;73.342;2023-02-12T04:55:05;221.25;;;84.15;;
69736;SDS011;64476;55.004;73.342;2023-02-12T04:58:07;279.23;;;107.68;;
69736;SDS011;64476;55.004;73.342;2023-02-12T05:01:08;242.90;;;98.00;;
69736;SDS011;64476;55.004;73.342;2023-02-12T05:04:12;265.30;;;104.75;;
69736;SDS011;64476;55.004;73.342;2023-02-12T05:07:15;270.52;;;103.28;;
69736;SDS011;64476;55.004;73.342;2023-02-12T05:10:17;265.05;;;101.38;;
69736;SDS011;64476;55.004;73.342;2023-02-12T05:13:18;241.70;;;94.03;;
69736;SDS011;64476;55.004;73.342;2023-02-12T05:16:20;248.57;;;91.53;;
69736;SDS011;64476;55.004;73.342;2023-02-12T05:19:32;227.85;;;88.35;;
69736;SDS011;64476;55.004;73.342;2023-02-12T05:22:34;244.15;;;98.45;;
69736;SDS011;64476;55.004;73.342;2023-02-12T05:25:36;248.60;;;96.32;;
69736;SDS011;64476;55.004;73.342;2023-02-12T05:28:37;250.50;;;94.70;;
69736;SDS011;64476;55.004;73.342;2023-02-12T05:31:39;242.75;;;94.43;;
69736;SDS011;64476;55.004;73.342;2023-02-12T05:34:51;237.50;;;91.18;;
69736;SDS011;64476;55.004;73.342;2023-02-12T05:37:52;233.38;;;90.28;;
69736;SDS011;64476;55.004;73.342;2023-02-12T05:41:07;232.57;;;96.90;;
69736;SDS011;64476;55.004;73.342;2023-02-12T05:44:11;239.48;;;94.45;;
69736;SDS011;64476;55.004;73.342;2023-02-12T05:47:19;233.48;;;93.38;;
69736;SDS011;64476;55.004;73.342;2023-02-12T05:50:21;269.00;;;95.22;;
69736;SDS011;64476;55.004;73.342;2023-02-12T05:53:33;241.20;;;95.95;;
69736;SDS011;64476;55.004;73.342;2023-02-12T05:56:36;235.70;;;96.03;;
69736;SDS011;64476;55.004;73.342;2023-02-12T05:59:42;254.10;;;102.78;;
69736;SDS011;64476;55.004;73.342;2023-02-12T06:02:48;262.20;;;101.95;;
69736;SDS011;64476;55.004;73.342;2023-02-12T06:05:52;269.03;;;100.53;;
69736;SDS011;64476;55.004;73.342;2023-02-12T06:08:54;254.38;;;101.38;;
69736;SDS011;64476;55.004;73.342;2023-02-12T06:12:05;251.82;;;103.57;;
69736;SDS011;64476;55.004;73.342;2023-02-12T06:15:07;252.88;;;105.75;;
69736;SDS011;64476;55.004;73.342;2023-02-12T06:18:09;259.58;;;107.38;;
69736;SDS011;64476;55.004;73.342;2023-02-12T06:21:11;249.75;;;106.20;;
69736;SDS011;64476;55.004;73.342;2023-02-12T06:24:21;239.70;;;102.47;;
69736;SDS011;64476;55.004;73.342;2023-02-12T06:27:23;236.82;;;98.93;;
69736;SDS011;64476;55.004;73.342;2023-02-12T06:30:24;227.15;;;98.63;;
69736;SDS011;64476;55.004;73.342;2023-02-12T06:33:26;212.07;;;94.82;;
69736;SDS011;64476;55.004;73.342;2023-02-12T06:36:39;236.18;;;101.00;;
69736;SDS011;64476;55.004;73.342;2023-02-12T06:39:52;241.53;;;106.50;;
69736;SDS011;64476;55.004;73.342;2023-02-12T06:42:53;255.57;;;106.82;;
69736;SDS011;64476;55.004;73.342;2023-02-12T06:45:55;243.63;;;111.78;;
69736;SDS011;64476;55.004;73.342;2023-02-12T06:49:01;253.15;;;112.25;;
69736;SDS011;64476;55.004;73.342;2023-02-12T06:52:08;265.45;;;115.40;;
69736;SDS011;64476;55.004;73.342;2023-02-12T06:55:10;247.00;;;110.20;;
69736;SDS011;64476;55.004;73.342;2023-02-12T06:58:17;245.70;;;106.30;;
69736;SDS011;64476;55.004;73.342;2023-02-12T07:01:19;227.00;;;101.05;;
69736;SDS011;64476;55.004;73.342;2023-02-12T07:04:33;221.68;;;96.63;;
69736;SDS011;64476;55.004;73.342;2023-02-12T07:07:44;216.10;;;94.88;;
69736;SDS011;64476;55.004;73.342;2023-02-12T07:10:48;206.80;;;91.00;;
69736;SDS011;64476;55.004;73.342;2023-02-12T07:14:00;209.43;;;94.40;;
69736;SDS011;64476;55.004;73.342;2023-02-12T07:17:01;205.33;;;94.07;;
69736;SDS011;64476;55.004;73.342;2023-02-12T07:20:11;205.43;;;93.22;;
69736;SDS011;64476;55.004;73.342;2023-02-12T07:23:13;197.88;;;90.40;;
69736;SDS011;64476;55.004;73.342;2023-02-12T07:26:24;216.68;;;90.18;;
69736;SDS011;64476;55.004;73.342;2023-02-12T07:29:26;213.02;;;91.90;;
69736;SDS011;64476;55.004;73.342;2023-02-12T07:32:28;199.13;;;89.28;;
69736;SDS011;64476;55.004;73.342;2023-02-12T07:35:29;193.57;;;87.45;;
69736;SDS011;64476;55.004;73.342;2023-02-12T07:38:31;194.38;;;86.95;;
69736;SDS011;64476;55.004;73.342;2023-02-12T07:41:35;196.68;;;86.57;;
69736;SDS011;64476;55.004;73.342;2023-02-12T07:44:37;170.35;;;78.88;;
69736;SDS011;64476;55.004;73.342;2023-02-12T07:47:39;183.38;;;82.93;;
69736;SDS011;64476;55.004;73.342;2023-02-12T07:50:46;177.00;;;78.43;;
69736;SDS011;64476;55.004;73.342;2023-02-12T07:53:48;165.82;;;76.45;;
69736;SDS011;64476;55.004;73.342;2023-02-12T07:56:52;160.15;;;73.28;;
69736;SDS011;64476;55.004;73.342;2023-02-12T07:59:54;153.85;;;69.70;;
69736;SDS011;64476;55.004;73.342;2023-02-12T08:03:01;163.00;;;76.05;;
69736;SDS011;64476;55.004;73.342;2023-02-12T08:06:11;174.85;;;82.57;;
69736;SDS011;64476;55.004;73.342;2023-02-12T08:09:31;186.55;;;79.95;;
69736;SDS011;64476;55.004;73.342;2023-02-12T08:12:33;182.23;;;80.03;;
69736;SDS011;64476;55.004;73.342;2023-02-12T08:15:46;193.55;;;87.35;;
69736;SDS011;64476;55.004;73.342;2023-02-12T08:18:48;205.68;;;92.93;;
69736;SDS011;64476;55.004;73.342;2023-02-12T08:22:05;227.48;;;95.10;;
69736;SDS011;64476;55.004;73.342;2023-02-12T08:25:17;217.30;;;98.15;;
69736;SDS011;64476;55.004;73.342;2023-02-12T08:28:19;227.30;;;101.50;;
69736;SDS011;64476;55.004;73.342;2023-02-12T08:31:24;245.07;;;103.13;;
69736;SDS011;64476;55.004;73.342;2023-02-12T08:34:28;228.82;;;101.95;;
69736;SDS011;64476;55.004;73.342;2023-02-12T08:37:41;229.95;;;103.38;;
69736;SDS011;64476;55.004;73.342;2023-02-12T08:40:46;212.57;;;94.65;;
69736;SDS011;64476;55.004;73.342;2023-02-12T08:43:48;213.05;;;97.95;;
69736;SDS011;64476;55.004;73.342;2023-02-12T08:47:02;214.30;;;96.18;;
69736;SDS011;64476;55.004;73.342;2023-02-12T08:50:04;205.57;;;92.90;;
69736;SDS011;64476;55.004;73.342;2023-02-12T08:53:06;231.45;;;105.00;;
69736;SDS011;64476;55.004;73.342;2023-02-12T08:56:08;212.68;;;96.40;;
69736;SDS011;64476;55.004;73.342;2023-02-12T08:59:13;197.32;;;87.47;;
69736;SDS011;64476;55.004;73.342;2023-02-12T09:02:16;198.52;;;91.20;;
69736;SDS011;64476;55.004;73.342;2023-02-12T09:05:25;171.30;;;85.07;;
69736;SDS011;64476;55.004;73.342;2023-02-12T09:08:27;191.55;;;88.68;;
69736;SDS011;64476;55.004;73.342;2023-02-12T09:11:28;169.88;;;82.72;;
69736;SDS011;64476;55.004;73.342;2023-02-12T09:14:30;202.30;;;91.07;;
69736;SDS011;64476;55.004;73.342;2023-02-12T09:17:32;210.88;;;94.40;;
69736;SDS011;64476;55.004;73.342;2023-02-12T09:20:46;234.36;;;114.86;;
69736;SDS011;64476;55.004;73.342;2023-02-12T09:23:48;248.75;;;118.43;;
69736;SDS011;64476;55.004;73.342;2023-02-12T09:26:49;259.30;;;125.43;;
69736;SDS011;64476;55.004;73.342;2023-02-12T09:29:51;279.42;;;127.72;;
69736;SDS011;64476;55.004;73.342;2023-02-12T09:32:53;247.88;;;117.78;;
69736;SDS011;64476;55.004;73.342;2023-02-12T09:35:59;245.23;;;112.50;;
69736;SDS011;64476;55.004;73.342;2023-02-12T09:39:15;219.00;;;102.68;;
69736;SDS011;64476;55.004;73.342;2023-02-12T09:42:24;208.18;;;97.57;;
69736;SDS011;64476;55.004;73.342;2023-02-12T09:45:49;190.85;;;91.88;;
69736;SDS011;64476;55.004;73.342;2023-02-12T09:49:37;186.77;;;88.70;;
69736;SDS011;64476;55.004;73.342;2023-02-12T09:52:49;185.75;;;87.47;;
69736;SDS011;64476;55.004;73.342;2023-02-12T09:55:52;186.73;;;88.37;;
69736;SDS011;64476;55.004;73.342;2023-02-12T09:58:55;194.80;;;90.72;;
69736;SDS011;64476;55.004;73.342;2023-02-12T10:02:05;191.30;;;92.30;;
69736;SDS011;64476;55.004;73.342;2023-02-12T10:05:31;224.50;;;92.22;;
69736;SDS011;64476;55.004;73.342;2023-02-12T10:15:38;210.37;;;93.43;;
69736;SDS011;64476;55.004;73.342;2023-02-12T10:18:54;195.00;;;90.03;;
69736;SDS011;64476;55.004;73.342;2023-02-12T10:26:29;196.38;;;86.72;;
69736;SDS011;64476;55.004;73.342;2023-02-12T10:30:02;196.52;;;94.03;;
69736;SDS011;64476;55.004;73.342;2023-02-12T10:33:31;190.40;;;89.47;;
69736;SDS011;64476;55.004;73.342;2023-02-12T10:36:41;193.93;;;83.07;;
69736;SDS011;64476;55.004;73.342;2023-02-12T10:40:04;204.95;;;87.93;;
69736;SDS011;64476;55.004;73.342;2023-02-12T10:43:11;184.43;;;85.45;;
69736;SDS011;64476;55.004;73.342;2023-02-12T10:46:19;223.65;;;95.43;;
69736;SDS011;64476;55.004;73.342;2023-02-12T10:49:20;207.25;;;89.88;;
69736;SDS011;64476;55.004;73.342;2023-02-12T10:55:34;184.05;;;76.88;;
69736;SDS011;64476;55.004;73.342;2023-02-12T11:01:58;200.18;;;82.18;;
69736;SDS011;64476;55.004;73.342;2023-02-12T11:05:01;165.00;;;71.55;;
69736;SDS011;64476;55.004;73.342;2023-02-12T11:08:33;155.23;;;68.13;;
69736;SDS011;64476;55.004;73.342;2023-02-12T11:11:38;173.05;;;74.10;;
69736;SDS011;64476;55.004;73.342;2023-02-12T11:15:34;162.38;;;70.10;;
69736;SDS011;64476;55.004;73.342;2023-02-12T11:18:31;160.95;;;68.55;;
69736;SDS011;64476;55.004;73.342;2023-02-12T11:21:34;147.57;;;66.38;;
69736;SDS011;64476;55.004;73.342;2023-02-12T11:24:36;163.73;;;70.32;;
69736;SDS011;64476;55.004;73.342;2023-02-12T11:28:02;183.15;;;73.15;;
69736;SDS011;64476;55.004;73.342;2023-02-12T11:31:21;165.43;;;70.32;;
69736;SDS011;64476;55.004;73.342;2023-02-12T11:34:29;163.98;;;69.22;;
69736;SDS011;64476;55.004;73.342;2023-02-12T11:37:41;158.68;;;69.50;;
69736;SDS011;64476;55.004;73.342;2023-02-12T11:40:46;173.10;;;70.70;;
69736;SDS011;64476;55.004;73.342;2023-02-12T11:43:52;188.30;;;75.95;;
69736;SDS011;64476;55.004;73.342;2023-02-12T11:46:55;178.05;;;79.47;;
69736;SDS011;64476;55.004;73.342;2023-02-12T11:50:30;173.95;;;79.85;;
69736;SDS011;64476;55.004;73.342;2023-02-12T11:53:36;189.93;;;77.55;;
69736;SDS011;64476;55.004;73.342;2023-02-12T11:56:48;163.18;;;74.75;;
69736;SDS011;64476;55.004;73.342;2023-02-12T11:59:50;133.88;;;63.88;;
69736;SDS011;64476;55.004;73.342;2023-02-12T12:13:23;147.70;;;62.38;;
69736;SDS011;64476;55.004;73.342;2023-02-12T12:16:37;158.02;;;68.57;;
69736;SDS011;64476;55.004;73.342;2023-02-12T12:20:18;179.80;;;71.70;;
69736;SDS011;64476;55.004;73.342;2023-02-12T12:23:24;169.90;;;70.53;;
69736;SDS011;64476;55.004;73.342;2023-02-12T12:26:33;175.93;;;76.30;;
69736;SDS011;64476;55.004;73.342;2023-02-12T12:32:52;291.65;;;112.40;;
69736;SDS011;64476;55.004;73.342;2023-02-12T12:46:39;187.10;;;70.70;;
69736;SDS011;64476;55.004;73.342;2023-02-12T12:50:06;163.48;;;65.85;;
69736;SDS011;64476;55.004;73.342;2023-02-12T12:53:35;158.77;;;64.50;;
69736;SDS011;64476;55.004;73.342;2023-02-12T12:57:01;159.32;;;70.85;;
69736;SDS011;64476;55.004;73.342;2023-02-12T13:10:33;166.88;;;72.40;;
69736;SDS011;64476;55.004;73.342;2023-02-12T13:13:47;168.40;;;68.20;;
69736;SDS011;64476;55.004;73.342;2023-02-12T13:17:04;156.57;;;67.53;;
69736;SDS011;64476;55.004;73.342;2023-02-12T13:23:41;188.00;;;70.43;;
69736;SDS011;64476;55.004;73.342;2023-02-12T13:26:58;193.25;;;76.55;;
69736;SDS011;64476;55.004;73.342;2023-02-12T13:30:37;207.23;;;80.13;;
69736;SDS011;64476;55.004;73.342;2023-02-12T13:33:49;191.10;;;78.13;;
69736;SDS011;64476;55.004;73.342;2023-02-12T13:37:04;205.85;;;80.93;;
69736;SDS011;64476;55.004;73.342;2023-02-12T13:40:14;192.27;;;75.20;;
69736;SDS011;64476;55.004;73.342;2023-02-12T13:46:33;206.20;;;82.87;;
69736;SDS011;64476;55.004;73.342;2023-02-12T13:50:16;216.15;;;80.93;;
69736;SDS011;64476;55.004;73.342;2023-02-12T13:57:07;196.02;;;77.95;;
69736;SDS011;64476;55.004;73.342;2023-02-12T14:04:12;175.32;;;70.82;;
69736;SDS011;64476;55.004;73.342;2023-02-12T14:11:04;202.90;;;79.53;;
69736;SDS011;64476;55.004;73.342;2023-02-12T14:14:13;193.27;;;77.82;;
69736;SDS011;64476;55.004;73.342;2023-02-12T14:20:33;175.73;;;71.00;;
69736;SDS011;64476;55.004;73.342;2023-02-12T14:23:42;181.05;;;69.28;;
69736;SDS011;64476;55.004;73.342;2023-02-12T14:26:51;155.07;;;64.70;;
69736;SDS011;64476;55.004;73.342;2023-02-12T14:30:01;152.38;;;62.00;;
69736;SDS011;64476;55.004;73.342;2023-02-12T14:33:19;155.07;;;61.45;;
69736;SDS011;64476;55.004;73.342;2023-02-12T14:39:33;96.65;;;42.95;;
69736;SDS011;64476;55.004;73.342;2023-02-12T14:45:46;104.76;;;40.84;;
69736;SDS011;64476;55.004;73.342;2023-02-12T14:55:29;109.63;;;45.85;;
69736;SDS011;64476;55.004;73.342;2023-02-12T14:58:36;129.20;;;53.58;;
69736;SDS011;64476;55.004;73.342;2023-02-12T15:01:40;126.77;;;52.83;;
69736;SDS011;64476;55.004;73.342;2023-02-12T15:04:44;136.35;;;56.20;;
69736;SDS011;64476;55.004;73.342;2023-02-12T15:07:49;127.93;;;52.60;;
69736;SDS011;64476;55.004;73.342;2023-02-12T15:11:03;128.53;;;53.07;;
69736;SDS011;64476;55.004;73.342;2023-02-12T15:14:23;143.05;;;58.03;;
69736;SDS011;64476;55.004;73.342;2023-02-12T15:17:40;142.13;;;58.80;;
69736;SDS011;64476;55.004;73.342;2023-02-12T15:20:59;162.38;;;66.60;;
69736;SDS011;64476;55.004;73.342;2023-02-12T15:24:10;156.27;;;65.10;;
69736;SDS011;64476;55.004;73.342;2023-02-12T15:27:13;177.48;;;72.80;;
69736;SDS011;64476;55.004;73.342;2023-02-12T15:30:17;215.70;;;77.38;;
69736;SDS011;64476;55.004;73.342;2023-02-12T15:33:32;220.60;;;79.97;;
69736;SDS011;64476;55.004;73.342;2023-02-12T15:36:35;212.82;;;78.40;;
69736;SDS011;64476;55.004;73.342;2023-02-12T15:43:16;194.15;;;76.97;;
69736;SDS011;64476;55.004;73.342;2023-02-12T15:46:29;218.18;;;79.85;;
69736;SDS011;64476;55.004;73.342;2023-02-12T15:49:38;223.07;;;82.72;;
69736;SDS011;64476;55.004;73.342;2023-02-12T15:52:43;263.15;;;93.40;;
69736;SDS011;64476;55.004;73.342;2023-02-12T15:55:49;250.38;;;90.35;;
69736;SDS011;64476;55.004;73.342;2023-02-12T15:58:53;272.75;;;101.68;;
69736;SDS011;64476;55.004;73.342;2023-02-12T16:01:58;271.80;;;103.13;;
69736;SDS011;64476;55.004;73.342;2023-02-12T16:05:35;210.82;;;81.43;;
69736;SDS011;64476;55.004;73.342;2023-02-12T16:08:46;237.38;;;92.03;;
69736;SDS011;64476;55.004;73.342;2023-02-12T16:11:56;224.65;;;81.50;;
69736;SDS011;64476;55.004;73.342;2023-02-12T16:15:04;165.57;;;65.75;;
69736;SDS011;64476;55.004;73.342;2023-02-12T16:18:20;166.18;;;63.70;;
69736;SDS011;64476;55.004;73.342;2023-02-12T16:21:24;179.18;;;73.68;;
69736;SDS011;64476;55.004;73.342;2023-02-12T16:27:31;201.77;;;76.22;;
69736;SDS011;64476;55.004;73.342;2023-02-12T16:33:51;217.48;;;87.32;;
69736;SDS011;64476;55.004;73.342;2023-02-12T16:36:56;275.40;;;108.35;;
69736;SDS011;64476;55.004;73.342;2023-02-12T16:40:11;345.55;;;132.85;;
69736;SDS011;64476;55.004;73.342;2023-02-12T16:43:28;387.55;;;141.75;;
69736;SDS011;64476;55.004;73.342;2023-02-12T16:46:30;405.65;;;152.90;;
69736;SDS011;64476;55.004;73.342;2023-02-12T16:49:34;414.38;;;161.10;;
69736;SDS011;64476;55.004;73.342;2023-02-12T16:52:40;424.63;;;155.75;;
69736;SDS011;64476;55.004;73.342;2023-02-12T16:55:47;392.95;;;143.32;;
69736;SDS011;64476;55.004;73.342;2023-02-12T16:58:53;279.42;;;107.25;;
69736;SDS011;64476;55.004;73.342;2023-02-12T17:02:01;289.85;;;108.28;;
69736;SDS011;64476;55.004;73.342;2023-02-12T17:05:14;230.75;;;95.72;;
69736;SDS011;64476;55.004;73.342;2023-02-12T17:08:29;229.05;;;91.03;;
69736;SDS011;64476;55.004;73.342;2023-02-12T17:11:36;232.13;;;89.07;;
69736;SDS011;64476;55.004;73.342;2023-02-12T17:14:37;219.15;;;85.05;;
69736;SDS011;64476;55.004;73.342;2023-02-12T17:17:39;205.77;;;79.00;;
69736;SDS011;64476;55.004;73.342;2023-02-12T17:20:54;216.23;;;82.75;;
69736;SDS011;64476;55.004;73.342;2023-02-12T17:27:31;195.18;;;80.03;;
69736;SDS011;64476;55.004;73.342;2023-02-12T17:30:32;212.27;;;77.88;;
69736;SDS011;64476;55.004;73.342;2023-02-12T17:33:34;189.65;;;75.45;;
69736;SDS011;64476;55.004;73.342;2023-02-12T17:36:41;180.02;;;69.50;;
69736;SDS011;64476;55.004;73.342;2023-02-12T17:39:43;178.80;;;67.68;;
69736;SDS011;64476;55.004;73.342;2023-02-12T17:42:44;169.27;;;65.90;;
69736;SDS011;64476;55.004;73.342;2023-02-12T17:45:56;157.63;;;64.28;;
69736;SDS011;64476;55.004;73.342;2023-02-12T17:48:59;169.02;;;64.85;;
69736;SDS011;64476;55.004;73.342;2023-02-12T17:52:07;157.43;;;62.00;;
69736;SDS011;64476;55.004;73.342;2023-02-12T17:55:09;156.13;;;61.22;;
69736;SDS011;64476;55.004;73.342;2023-02-12T17:58:13;154.85;;;57.08;;
69736;SDS011;64476;55.004;73.342;2023-02-12T18:01:24;148.00;;;56.50;;
69736;SDS011;64476;55.004;73.342;2023-02-12T18:04:36;136.30;;;57.03;;
69736;SDS011;64476;55.004;73.342;2023-02-12T18:07:38;143.20;;;54.78;;
69736;SDS011;64476;55.004;73.342;2023-02-12T18:10:46;137.48;;;58.28;;
69736;SDS011;64476;55.004;73.342;2023-02-12T18:13:50;139.48;;;60.25;;
69736;SDS011;64476;55.004;73.342;2023-02-12T18:16:53;139.18;;;58.88;;
69736;SDS011;64476;55.004;73.342;2023-02-12T18:19:55;138.35;;;61.03;;
69736;SDS011;64476;55.004;73.342;2023-02-12T18:22:59;181.88;;;71.65;;
69736;SDS011;64476;55.004;73.342;2023-02-12T18:26:07;158.77;;;63.47;;
69736;SDS011;64476;55.004;73.342;2023-02-12T18:29:11;147.95;;;61.65;;
69736;SDS011;64476;55.004;73.342;2023-02-12T18:32:13;104.05;;;44.80;;
69736;SDS011;64476;55.004;73.342;2023-02-12T18:35:55;122.03;;;48.67;;
69736;SDS011;64476;55.004;73.342;2023-02-12T18:39:18;99.75;;;43.72;;
69736;SDS011;64476;55.004;73.342;2023-02-12T18:42:29;110.72;;;43.78;;
69736;SDS011;64476;55.004;73.342;2023-02-12T18:45:33;111.47;;;44.80;;
69736;SDS011;64476;55.004;73.342;2023-02-12T18:48:44;107.30;;;43.28;;
69736;SDS011;64476;55.004;73.342;2023-02-12T18:51:46;114.93;;;46.00;;
69736;SDS011;64476;55.004;73.342;2023-02-12T18:54:48;111.78;;;49.10;;
69736;SDS011;64476;55.004;73.342;2023-02-12T19:01:15;179.05;;;66.80;;
69736;SDS011;64476;55.004;73.342;2023-02-12T19:04:20;171.15;;;67.75;;
69736;SDS011;64476;55.004;73.342;2023-02-12T19:07:23;188.20;;;72.55;;
69736;SDS011;64476;55.004;73.342;2023-02-12T19:10:27;203.15;;;75.93;;
69736;SDS011;64476;55.004;73.342;2023-02-12T19:13:29;206.25;;;82.13;;
69736;SDS011;64476;55.004;73.342;2023-02-12T19:16:36;214.30;;;83.18;;
69736;SDS011;64476;55.004;73.342;2023-02-12T19:19:43;239.75;;;91.25;;
69736;SDS011;64476;55.004;73.342;2023-02-12T19:22:48;238.05;;;90.85;;
69736;SDS011;64476;55.004;73.342;2023-02-12T19:26:39;234.02;;;91.38;;
69736;SDS011;64476;55.004;73.342;2023-02-12T19:29:41;257.33;;;98.05;;
69736;SDS011;64476;55.004;73.342;2023-02-12T19:32:48;258.27;;;96.70;;
69736;SDS011;64476;55.004;73.342;2023-02-12T19:35:50;267.79;;;98.83;;
69736;SDS011;64476;55.004;73.342;2023-02-12T19:38:56;242.23;;;94.05;;
69736;SDS011;64476;55.004;73.342;2023-02-12T19:41:57;243.68;;;95.15;;
69736;SDS011;64476;55.004;73.342;2023-02-12T19:44:59;256.48;;;92.97;;
69736;SDS011;64476;55.004;73.342;2023-02-12T19:48:06;246.27;;;92.35;;
69736;SDS011;64476;55.004;73.342;2023-02-12T19:51:39;265.63;;;101.68;;
69736;SDS011;64476;55.004;73.342;2023-02-12T19:54:42;272.25;;;101.07;;
69736;SDS011;64476;55.004;73.342;2023-02-12T19:57:49;285.50;;;107.32;;
69736;SDS011;64476;55.004;73.342;2023-02-12T20:00:51;280.42;;;110.53;;
69736;SDS011;64476;55.004;73.342;2023-02-12T20:03:58;280.48;;;106.22;;
69736;SDS011;64476;55.004;73.342;2023-02-12T20:07:09;240.13;;;86.82;;
69736;SDS011;64476;55.004;73.342;2023-02-12T20:10:15;209.57;;;76.13;;
69736;SDS011;64476;55.004;73.342;2023-02-12T20:13:16;177.48;;;69.20;;
69736;SDS011;64476;55.004;73.342;2023-02-12T20:16:20;179.48;;;64.72;;
69736;SDS011;64476;55.004;73.342;2023-02-12T20:19:25;150.45;;;61.10;;
69736;SDS011;64476;55.004;73.342;2023-02-12T20:22:29;128.90;;;49.75;;
69736;SDS011;64476;55.004;73.342;2023-02-12T20:25:31;133.45;;;54.25;;
69736;SDS011;64476;55.004;73.342;2023-02-12T20:28:33;143.30;;;51.28;;